createdAt,value
2019-04-23T00:00:39.201Z,8.20
2019-04-23T00:10:49.046Z,7.58
2019-04-23T00:16:10.762Z,7.98
2019-04-23T00:20:57.798Z,7.89
2019-04-23T00:26:03.947Z,8.13
2019-04-23T00:36:10.655Z,7.03
2019-04-23T00:41:26.099Z,7.91
2019-04-23T00:46:28.846Z,7.03
2019-04-23T01:06:44.617Z,7.26
2019-04-23T01:11:49.682Z,7.68
2019-04-23T01:16:52.986Z,8.24
2019-04-23T01:21:34.753Z,8.46
2019-04-23T01:26:57.573Z,7.81
2019-04-23T01:31:58.539Z,7.30
2019-04-23T01:42:04.031Z,7.77
2019-04-23T01:47:25.177Z,8.04
2019-04-23T01:52:17.922Z,7.92
2019-04-23T01:57:23.233Z,8.41
2019-04-23T02:07:29.535Z,8.07
2019-04-23T02:12:34.425Z,8.50
2019-04-23T02:17:23.387Z,8.67
2019-04-23T02:22:25.027Z,8.55
2019-04-23T02:27:30.027Z,8.75
2019-04-23T02:32:52.573Z,8.31
2019-04-23T02:37:54.628Z,7.79
2019-04-23T02:43:01.686Z,8.94
2019-04-23T02:47:54.964Z,8.87
2019-04-23T02:53:08.807Z,8.63
2019-04-23T02:58:00.738Z,9.79
2019-04-23T03:03:01.660Z,8.44
2019-04-23T03:08:00.646Z,8.75
2019-04-23T03:23:34.882Z,10.38
2019-04-23T03:28:26.901Z,9.07
2019-04-23T03:43:46.585Z,9.19
2019-04-23T03:48:46.760Z,10.27
2019-04-23T03:53:44.799Z,9.93
2019-04-23T04:18:54.223Z,10.49
2019-04-23T04:29:20.991Z,10.54
2019-04-23T04:44:37.358Z,11.12
2019-04-23T04:49:51.681Z,10.91
2019-04-23T04:54:26.259Z,10.99
2019-04-23T05:00:01.765Z,11.45
2019-04-23T05:05:05.150Z,10.46
2019-04-23T05:09:48.575Z,11.02
2019-04-23T05:15:07.326Z,10.58
2019-04-23T05:20:16.694Z,11.36
2019-04-23T05:25:17.973Z,10.61
2019-04-23T05:30:26.753Z,11.86
2019-04-23T05:45:53.116Z,10.91
2019-04-23T05:50:51.901Z,10.26
2019-04-23T05:55:58.415Z,11.24
2019-04-23T06:00:59.754Z,9.72
2019-04-23T06:06:10.747Z,7.34
2019-04-23T06:11:18.892Z,5.92
2019-04-23T06:16:35.669Z,5.35
2019-04-23T06:26:42.922Z,4.67
2019-04-23T06:31:24.796Z,4.54
2019-04-23T06:36:30.752Z,4.76
2019-04-23T06:41:46.563Z,8.12
2019-04-23T06:51:44.894Z,5.46
2019-04-23T06:57:02.216Z,5.22
